createdAt,value
2019-04-01T00:00:05.754Z,1.60
2019-04-01T00:02:32.706Z,1.60
2019-04-01T00:04:58.088Z,1.60
2019-04-01T00:07:23.417Z,1.50
2019-04-01T00:09:49.878Z,1.50
2019-04-01T00:12:16.830Z,1.40
2019-04-01T00:14:42.173Z,1.40
2019-04-01T00:17:07.567Z,1.40
2019-04-01T00:19:32.906Z,1.40
2019-04-01T00:21:58.274Z,1.30
2019-04-01T00:24:23.626Z,1.30
2019-04-01T00:26:48.990Z,1.20
2019-04-01T00:29:14.436Z,1.20
2019-04-01T00:31:39.774Z,1.20
2019-04-01T00:34:05.134Z,1.10
2019-04-01T00:36:30.483Z,1.10
2019-04-01T00:38:55.845Z,1.10
2019-04-01T00:41:21.194Z,1.10
2019-04-01T00:43:57.722Z,1.00
2019-04-01T00:46:23.458Z,1.00
2019-04-01T00:49:00.890Z,1.00
2019-04-01T00:51:26.322Z,1.00
2019-04-01T00:53:51.660Z,0.90
2019-04-01T00:56:17.034Z,0.90
2019-04-01T00:58:42.406Z,0.90
2019-04-01T01:01:07.782Z,0.80
2019-04-01T01:03:33.117Z,0.80
2019-04-01T01:05:58.513Z,0.80
2019-04-01T01:08:23.854Z,0.80
2019-04-01T01:10:49.198Z,0.70
2019-04-01T01:13:15.638Z,0.70
2019-04-01T01:15:40.971Z,0.70
2019-04-01T01:18:06.333Z,0.60
2019-04-01T01:20:31.669Z,0.60
2019-04-01T01:22:57.124Z,0.60
2019-04-01T01:25:22.467Z,0.60
2019-04-01T01:27:47.817Z,0.50
2019-04-01T01:30:13.813Z,0.50
2019-04-01T01:32:39.142Z,0.50
2019-04-01T01:35:04.689Z,0.50
2019-04-01T01:37:30.034Z,0.40
2019-04-01T01:39:55.773Z,0.40
2019-04-01T01:42:21.135Z,0.40
2019-04-01T01:44:46.469Z,0.40
2019-04-01T01:47:11.834Z,0.40
2019-04-01T01:49:37.165Z,0.30
2019-04-01T01:52:02.662Z,0.40
2019-04-01T01:54:27.990Z,0.30
2019-04-01T01:56:53.326Z,0.20
2019-04-01T01:59:18.716Z,0.20
2019-04-01T02:01:44.062Z,0.20
2019-04-01T02:04:09.538Z,0.20
2019-04-01T02:06:34.875Z,0.20
2019-04-01T02:09:01.287Z,0.10
2019-04-01T02:11:28.015Z,0.10
2019-04-01T02:13:53.350Z,0.10
2019-04-01T02:16:18.730Z,0.10
2019-04-01T02:18:44.066Z,0.00
2019-04-01T02:21:09.397Z,0.00
2019-04-01T02:23:34.784Z,0.00
2019-04-01T02:26:00.118Z,0.00
2019-04-01T02:28:25.513Z,-0.10
2019-04-01T02:30:50.866Z,-0.10
2019-04-01T02:33:16.210Z,-0.10
2019-04-01T02:35:41.587Z,-0.10
2019-04-01T02:38:06.996Z,-0.10
2019-04-01T02:40:32.592Z,-0.20
2019-04-01T02:42:58.129Z,-0.20
2019-04-01T02:45:23.587Z,-0.20
2019-04-01T02:47:48.939Z,-0.20
2019-04-01T02:50:14.395Z,-0.20
2019-04-01T02:52:39.775Z,-0.30
2019-04-01T02:55:06.922Z,-0.30
2019-04-01T02:57:32.363Z,-0.30
2019-04-01T02:59:57.733Z,-0.30
2019-04-01T03:02:23.191Z,-0.30
2019-04-01T03:04:48.538Z,-0.30
2019-04-01T03:07:13.891Z,-0.40
2019-04-01T03:09:39.254Z,-0.40
2019-04-01T03:12:04.597Z,-0.40
2019-04-01T03:14:29.955Z,-0.40
2019-04-01T03:16:55.314Z,-0.40
2019-04-01T03:19:20.679Z,-0.50
2019-04-01T03:21:46.025Z,-0.50
2019-04-01T03:24:11.395Z,-0.50
2019-04-01T03:26:36.746Z,-0.50
2019-04-01T03:29:02.085Z,-0.60
2019-04-01T03:31:27.542Z,-0.60
2019-04-01T03:34:04.962Z,-0.60
2019-04-01T09:32:19.625Z,12.60
2019-04-01T09:34:45.590Z,12.60
2019-04-01T09:37:10.925Z,12.90
2019-04-01T09:39:36.398Z,12.80
2019-04-01T09:42:02.015Z,12.60
2019-04-01T09:44:36.707Z,12.60
2019-04-01T09:46:54.502Z,12.40
2019-04-01T09:49:19.848Z,12.60
2019-04-01T09:51:48.877Z,12.80
2019-04-01T09:54:12.550Z,12.90
2019-04-01T09:56:37.916Z,13.20
2019-04-01T09:59:03.259Z,13.30
2019-04-01T10:01:28.674Z,13.30
2019-04-01T10:03:54.046Z,13.50
2019-04-01T10:06:19.382Z,13.60
2019-04-01T10:08:44.853Z,13.50
2019-04-01T10:11:12.638Z,13.60
2019-04-01T10:13:37.258Z,13.80
2019-04-01T10:16:02.600Z,13.70
2019-04-01T10:18:27.980Z,13.50
2019-04-01T10:20:53.346Z,13.90
2019-04-01T10:23:18.688Z,14.10
2019-04-01T10:25:44.057Z,13.90
2019-04-01T10:28:09.393Z,14.00
2019-04-01T10:30:34.779Z,14.20
2019-04-01T10:33:02.104Z,14.20
2019-04-01T10:35:27.225Z,14.00
2019-04-01T10:37:53.484Z,14.00
2019-04-01T10:40:18.985Z,13.80
2019-04-01T10:42:44.353Z,13.90
2019-04-01T10:45:10.365Z,13.90
2019-04-01T10:47:35.848Z,14.00
2019-04-01T10:50:01.285Z,14.40
2019-04-01T10:52:26.604Z,14.40
2019-04-01T10:54:52.041Z,14.40
2019-04-01T10:57:17.403Z,14.40
2019-04-01T10:59:42.745Z,14.20
2019-04-01T11:02:08.129Z,14.10
2019-04-01T11:04:33.752Z,13.90
2019-04-01T11:06:59.709Z,14.00
2019-04-01T11:09:37.663Z,13.90
2019-04-01T11:11:51.974Z,14.20
2019-04-01T11:14:17.322Z,13.70
2019-04-01T11:16:43.754Z,13.70
2019-04-01T11:19:10.009Z,13.80
2019-04-01T11:21:35.478Z,14.00
2019-04-01T11:24:01.965Z,14.10
2019-04-01T11:26:27.583Z,14.00
2019-04-01T11:28:52.942Z,14.40
2019-04-01T11:31:18.335Z,14.50
2019-04-01T11:33:43.753Z,14.10
2019-04-01T11:36:09.091Z,14.00
2019-04-01T11:38:34.429Z,14.10
2019-04-01T11:40:59.821Z,14.20
2019-04-01T11:43:26.207Z,14.30
2019-04-01T11:45:51.620Z,14.40
2019-04-01T11:48:18.579Z,14.40
2019-04-01T11:50:47.504Z,14.60
2019-04-01T11:53:10.867Z,14.40
2019-04-01T11:55:36.233Z,14.50
2019-04-01T11:58:01.687Z,14.30
2019-04-01T12:00:27.022Z,14.10
2019-04-01T12:02:52.485Z,14.10
2019-04-01T12:05:17.911Z,14.10
2019-04-01T12:07:43.249Z,14.10
2019-04-01T12:10:10.128Z,14.30
2019-04-01T12:12:35.457Z,14.20
2019-04-01T12:15:00.806Z,14.10
2019-04-01T12:17:26.269Z,14.30
2019-04-01T12:19:53.148Z,14.60
2019-04-01T12:22:19.957Z,14.30
2019-04-01T12:24:45.462Z,14.50
2019-04-01T12:27:10.909Z,14.20
2019-04-01T12:29:36.290Z,14.30
2019-04-01T12:32:03.017Z,14.20
2019-04-01T12:34:28.482Z,14.20
2019-04-01T12:36:53.823Z,14.50
2019-04-01T12:39:19.196Z,14.50
2019-04-01T12:41:44.577Z,14.50
2019-04-01T12:44:11.040Z,14.40
2019-04-01T12:46:36.487Z,14.30
2019-04-01T12:49:01.863Z,14.20
2019-04-01T12:51:27.202Z,14.20
2019-04-01T12:53:52.566Z,14.30
2019-04-01T12:56:17.917Z,14.20
2019-04-01T12:58:43.283Z,14.30
2019-04-01T13:01:08.618Z,13.80
2019-04-01T13:03:34.023Z,13.80
2019-04-01T13:05:59.415Z,14.00
2019-04-01T13:08:24.766Z,14.20
2019-04-01T13:10:50.596Z,14.20
2019-04-01T13:13:16.246Z,14.10
2019-04-01T13:15:41.598Z,14.20
2019-04-01T13:18:07.019Z,14.20
2019-04-01T13:20:38.063Z,14.00
2019-04-01T13:22:59.338Z,14.00
2019-04-01T13:25:25.100Z,14.40
2019-04-01T13:27:50.450Z,14.10
2019-04-01T13:30:15.911Z,14.00
2019-04-01T13:32:41.411Z,13.90
2019-04-01T13:35:07.521Z,14.10
2019-04-01T13:37:32.865Z,14.20
2019-04-01T13:40:02.847Z,14.00
2019-04-01T13:42:28.821Z,14.20
2019-04-01T13:44:54.170Z,14.40
2019-04-01T13:47:19.677Z,14.20
2019-04-01T13:49:45.957Z,14.00
2019-04-01T13:52:11.703Z,14.10
2019-04-01T13:54:37.373Z,14.00
2019-04-01T13:57:02.753Z,14.10
2019-04-01T13:59:28.563Z,13.90
2019-04-01T14:01:54.352Z,13.80
2019-04-01T14:04:22.453Z,13.90
2019-04-01T14:06:47.850Z,14.00
2019-04-01T14:09:13.206Z,14.10
2019-04-01T14:11:38.683Z,14.00
2019-04-01T14:14:04.226Z,14.20
2019-04-01T14:16:29.583Z,14.30
2019-04-01T14:18:55.045Z,14.30
2019-04-01T14:21:21.015Z,14.30
2019-04-01T14:23:46.948Z,14.20
2019-04-01T14:26:12.556Z,14.20
2019-04-01T14:28:39.050Z,14.00
2019-04-01T14:31:05.236Z,13.80
2019-04-01T14:33:32.661Z,13.80
2019-04-01T14:35:58.298Z,13.70
2019-04-01T14:38:23.679Z,13.70
2019-04-01T14:40:49.024Z,13.80
2019-04-01T14:43:14.477Z,13.70
2019-04-01T14:45:39.925Z,13.90
2019-04-01T14:48:08.355Z,14.00
2019-04-01T14:50:33.319Z,13.90
2019-04-01T14:52:58.666Z,13.90
2019-04-01T14:55:24.011Z,13.90
2019-04-01T14:57:49.369Z,13.70
2019-04-01T15:00:15.921Z,13.80
2019-04-01T15:02:41.306Z,13.80
2019-04-01T15:05:06.893Z,13.80
2019-04-01T15:07:32.694Z,13.70
2019-04-01T15:09:58.054Z,13.80
2019-04-01T15:12:23.414Z,13.90
2019-04-01T15:14:48.799Z,13.80
2019-04-01T15:17:14.149Z,13.70
2019-04-01T15:19:39.542Z,13.70
2019-04-01T15:22:04.990Z,13.70
2019-04-01T15:24:30.361Z,13.70
2019-04-01T15:26:56.198Z,13.60
2019-04-01T15:29:21.550Z,13.60
2019-04-01T15:31:46.925Z,13.60
2019-04-01T15:34:12.303Z,13.50
2019-04-01T15:36:37.654Z,13.40
2019-04-01T15:39:03.065Z,13.30
2019-04-01T15:41:29.786Z,13.30
2019-04-01T15:43:55.179Z,13.20
2019-04-01T15:46:20.596Z,13.10
2019-04-01T15:48:45.929Z,12.90
2019-04-01T15:51:11.336Z,12.90
2019-04-01T15:53:36.693Z,12.90
2019-04-01T15:56:02.423Z,12.80
2019-04-01T15:58:28.145Z,12.70
2019-04-01T16:00:53.489Z,12.70
2019-04-01T16:03:18.849Z,12.60
2019-04-01T16:05:44.251Z,12.50
2019-04-01T16:08:09.647Z,12.40
2019-04-01T16:10:35.023Z,12.40
2019-04-01T16:13:00.619Z,12.30
2019-04-01T16:15:26.035Z,12.30
2019-04-01T16:17:53.878Z,12.30
2019-04-01T16:20:18.374Z,12.10
2019-04-01T16:22:43.876Z,12.10
2019-04-01T16:25:09.382Z,12.00
2019-04-01T16:27:34.740Z,12.00
2019-04-01T16:30:00.093Z,11.90
2019-04-01T16:32:25.660Z,11.80
2019-04-01T16:34:51.087Z,11.80
2019-04-01T16:37:16.440Z,11.70
2019-04-01T16:39:41.918Z,11.70
2019-04-01T16:42:07.249Z,11.60
2019-04-01T16:44:32.603Z,11.60
2019-04-01T16:46:58.095Z,11.50
2019-04-01T16:49:23.453Z,11.50
2019-04-01T16:51:48.813Z,11.50
2019-04-01T16:54:14.293Z,11.40
2019-04-01T16:56:39.650Z,11.30
2019-04-01T16:59:05.007Z,11.30
2019-04-01T17:01:30.417Z,11.30
2019-04-01T17:03:55.776Z,11.20
2019-04-01T17:06:21.161Z,11.20
2019-04-01T17:08:46.578Z,11.10
2019-04-01T17:11:11.942Z,11.00
2019-04-01T17:13:37.349Z,11.00
2019-04-01T17:16:02.790Z,11.00
2019-04-01T17:18:28.137Z,10.90
2019-04-01T17:20:53.514Z,10.80
2019-04-01T17:23:18.935Z,10.80
2019-04-01T17:25:44.403Z,10.70
2019-04-01T17:28:10.246Z,10.60
2019-04-01T17:30:35.609Z,10.60
2019-04-01T17:33:01.026Z,10.50
2019-04-01T17:35:26.369Z,10.40
2019-04-01T17:37:51.777Z,10.40
2019-04-01T17:40:17.395Z,10.30
2019-04-01T17:42:42.934Z,10.30
2019-04-01T17:45:32.689Z,10.20
2019-04-01T17:48:00.536Z,10.10
2019-04-01T17:50:24.993Z,10.00
2019-04-01T17:52:50.375Z,10.00
2019-04-01T17:55:16.256Z,9.90
2019-04-01T17:57:42.575Z,9.80
2019-04-01T18:00:12.262Z,9.80
2019-04-01T18:02:38.455Z,9.70
2019-04-01T18:05:03.803Z,9.60
2019-04-01T18:07:29.141Z,9.50
2019-04-01T18:09:54.729Z,9.50
2019-04-01T18:12:20.070Z,9.40
2019-04-01T18:14:45.410Z,9.40
2019-04-01T18:17:12.008Z,9.30
2019-04-01T18:19:37.682Z,9.30
2019-04-01T18:22:03.038Z,9.20
2019-04-01T18:24:28.376Z,9.10
2019-04-01T18:26:53.713Z,9.10
2019-04-01T18:29:19.170Z,9.00
2019-04-01T18:31:44.512Z,8.90
2019-04-01T18:34:09.925Z,8.90
2019-04-01T18:36:35.298Z,8.90
2019-04-01T18:39:03.845Z,8.80
2019-04-01T18:41:40.212Z,8.80
2019-04-01T18:44:05.641Z,8.70
2019-04-01T18:46:30.982Z,8.70
2019-04-01T18:48:56.354Z,8.60
2019-04-01T18:51:22.066Z,8.60
2019-04-01T18:53:47.474Z,8.50
2019-04-01T18:56:12.799Z,8.50
2019-04-01T18:58:38.265Z,8.40
2019-04-01T19:01:04.484Z,8.40
2019-04-01T19:03:29.935Z,8.40
2019-04-01T19:05:55.666Z,8.30
2019-04-01T19:08:21.018Z,8.30
2019-04-01T19:10:46.598Z,8.30
2019-04-01T19:13:12.643Z,8.20
2019-04-01T19:15:41.035Z,8.20
2019-04-01T19:18:05.441Z,8.10
2019-04-01T19:20:30.839Z,8.10
2019-04-01T19:22:56.272Z,8.10
2019-04-01T19:25:23.273Z,8.00
2019-04-01T19:27:49.219Z,8.00
2019-04-01T19:30:15.959Z,7.90
2019-04-01T19:32:41.398Z,7.90
2019-04-01T19:35:09.442Z,7.90
2019-04-01T19:37:34.092Z,7.90
2019-04-01T19:39:59.430Z,7.80
2019-04-01T19:42:24.773Z,7.80
2019-04-01T19:44:50.159Z,7.80
2019-04-01T19:47:15.501Z,7.70
2019-04-01T19:49:40.854Z,7.70
2019-04-01T19:52:09.544Z,7.70
2019-04-01T19:54:34.277Z,7.60
2019-04-01T19:56:59.925Z,7.50
2019-04-01T19:59:26.080Z,7.50
2019-04-01T20:01:51.618Z,7.50
2019-04-01T20:04:16.982Z,7.40
2019-04-01T20:06:42.340Z,7.40
2019-04-01T20:09:08.643Z,7.40
2019-04-01T20:11:34.021Z,7.30
2019-04-01T20:14:00.774Z,7.40
2019-04-01T20:16:26.211Z,7.30
2019-04-01T20:18:51.568Z,7.30
2019-04-01T20:21:16.953Z,7.30
2019-04-01T20:23:42.312Z,7.30
2019-04-01T20:26:08.657Z,7.30
2019-04-01T20:28:34.017Z,7.20
2019-04-01T20:30:59.375Z,7.20
2019-04-01T20:33:24.733Z,7.20
2019-04-01T20:35:50.079Z,7.20
2019-04-01T20:38:15.462Z,7.20
2019-04-01T20:40:40.814Z,7.20
2019-04-01T20:43:06.161Z,7.20
2019-04-01T20:45:31.550Z,7.10
2019-04-01T20:47:57.976Z,7.10
2019-04-01T20:50:23.630Z,7.10
2019-04-01T20:52:50.180Z,7.10
2019-04-01T20:55:15.701Z,7.10
2019-04-01T20:57:41.075Z,7.10
2019-04-01T21:00:09.305Z,7.00
2019-04-01T21:02:35.443Z,6.90
2019-04-01T21:05:00.783Z,6.90
2019-04-01T21:07:26.130Z,6.90
2019-04-01T21:09:51.493Z,6.90
2019-04-01T21:12:16.864Z,6.80
2019-04-01T21:14:42.194Z,6.80
2019-04-01T21:17:07.577Z,6.70
2019-04-01T21:19:32.915Z,6.70
2019-04-01T21:21:58.258Z,6.70
2019-04-01T21:24:23.730Z,6.70
2019-04-01T21:26:49.082Z,6.70
2019-04-01T21:29:14.438Z,6.60
2019-04-01T21:31:39.886Z,6.60
2019-04-01T21:34:07.699Z,6.50
2019-04-01T21:36:32.291Z,6.50
2019-04-01T21:38:57.753Z,6.50
2019-04-01T21:41:23.103Z,6.50
2019-04-01T21:43:49.051Z,6.50
2019-04-01T21:46:14.917Z,6.50
2019-04-01T21:48:40.242Z,6.50
2019-04-01T21:51:05.805Z,6.40
2019-04-01T21:53:31.614Z,6.40
2019-04-01T21:55:57.040Z,6.40
2019-04-01T21:58:22.405Z,6.40
2019-04-01T22:00:54.589Z,6.40
2019-04-01T22:03:20.034Z,6.40
2019-04-01T22:05:45.381Z,6.40
2019-04-01T22:08:10.720Z,6.40
2019-04-01T22:10:36.453Z,6.50
2019-04-01T22:13:01.846Z,6.40
2019-04-01T22:15:27.190Z,6.50
2019-04-01T22:17:52.559Z,6.50
2019-04-01T22:20:17.994Z,6.50
2019-04-01T22:22:43.441Z,6.50
2019-04-01T22:25:08.777Z,6.50
2019-04-01T22:27:34.118Z,6.50
2019-04-01T22:29:59.479Z,6.50
2019-04-01T22:32:24.831Z,6.50
2019-04-01T22:34:50.550Z,6.50
2019-04-01T22:37:26.615Z,6.50
2019-04-01T22:39:45.390Z,6.40
2019-04-01T22:42:12.134Z,6.40
2019-04-01T22:44:37.494Z,6.40
2019-04-01T22:47:02.846Z,6.40
2019-04-01T22:49:28.223Z,6.30
2019-04-01T22:51:53.550Z,6.30
2019-04-01T22:54:18.914Z,6.30
2019-04-01T22:56:44.580Z,6.30
2019-04-01T22:59:09.991Z,6.20
2019-04-01T23:01:35.354Z,6.20
2019-04-01T23:04:00.696Z,6.20
2019-04-01T23:06:26.946Z,6.20
2019-04-01T23:08:52.410Z,6.20
2019-04-01T23:11:17.760Z,6.20
2019-04-01T23:13:43.154Z,6.10
2019-04-01T23:16:08.537Z,6.10
2019-04-01T23:18:33.876Z,6.10
2019-04-01T23:20:59.222Z,6.00
2019-04-01T23:23:24.577Z,6.10
2019-04-01T23:25:49.910Z,6.00
2019-04-01T23:28:15.311Z,6.00
2019-04-01T23:30:40.766Z,6.00
2019-04-01T23:33:06.110Z,5.90
2019-04-01T23:35:31.460Z,6.00
2019-04-01T23:37:56.822Z,5.90
2019-04-01T23:40:22.206Z,5.90
2019-04-01T23:42:47.546Z,5.80
2019-04-01T23:45:13.418Z,5.80
2019-04-01T23:47:38.866Z,5.80
2019-04-01T23:50:04.322Z,5.70
2019-04-01T23:52:29.682Z,5.80
2019-04-01T23:54:55.041Z,5.70
2019-04-01T23:57:20.386Z,5.70
2019-04-01T23:59:45.853Z,5.70
